Список аэропортов
Фактическая погода:

18 октября, 10:00
Температура: +19°C (+18.8*)
Ветер: восточный 5 м/с
Давление: *764 мм
несуществ. обл.
Время (МСК)Темп. СВетерВлажностьДавлениеОблачностьОсадки
09:00+14СВ, 6 м/с78%1019 гПаясно
10:00+16СВ, 5 м/с68%1019 гПаясно
11:00+19СВ, 4 м/с57%1019 гПаясно
12:00+22СВ, 4 м/с49%1018 гПаясно
13:00+23СВ, 3 м/с45%1018 гПаясно
14:00+24СВ, 3 м/с43%1018 гПаясно
15:00+24СВ, 3 м/с43%1017 гПаясно
16:00+23СВ, 3 м/с44%1017 гПаясно
17:00+22СВ, 4 м/с46%1017 гПаясно
18:00+20СВ, 3 м/с51%1017 гПаясно
19:00+19СВ, 3 м/с57%1017 гПаясно
20:00+18СВ, 3 м/с62%1017 гПаясно
21:00+17СВ, 2 м/с67%1017 гПаясно
22:00+15С, 2 м/с75%1017 гПаясно
23:00+14СВ, 2 м/с73%1017 гПаясно
19 октября
00:00+14СВ, 2 м/с70%1016 гПаясно
01:00+13СВ, 2 м/с73%1017 гПаясно
02:00+12СВ, 2 м/с79%1017 гПаясно
03:00+11СВ, 2 м/с85%1016 гПаясно
04:00+10СВ, 2 м/с88%1016 гПаясно
05:00+10СВ, 2 м/с89%1017 гПаясно
06:00+10СВ, 2 м/с92%1017 гПаясно
07:00+9СВ, 2 м/с96%1016 гПамалооблачно
08:00+10СВ, 2 м/с92%1017 гПамалооблачно
09:00+14В, 1 м/с77%1016 гПаясно
10:00+19ЮВ, 1 м/с60%1016 гПаясно
11:00+21Ю, 2 м/с52%1016 гПаясно
12:00+22Ю, 3 м/с58%1016 гПаясно
13:00+23Ю, 3 м/с63%1017 гПаясно
14:00+22Ю, 4 м/с68%1016 гПаясно
15:00+22Ю, 4 м/с71%1016 гПаясно
16:00+21Ю, 3 м/с72%1016 гПаясно
17:00+20Ю, 3 м/с76%1016 гПаясно
18:00+19ЮЗ, 2 м/с86%1016 гПамалооблачно
19:00+18СЗ, 2 м/с93%1016 гПас прояснениями
20:00+17С, 1 м/с95%1016 гПамалооблачно
21:00+16СЗ, 1 м/с96%1016 гПамалооблачно
22:00+15С, 1 м/с96%1016 гПамалооблачно
23:00+14С, 1 м/с97%1015 гПамалооблачно
20 октября
00:00+13СЗ, 1 м/с98%1015 гПамалооблачно
01:00+13С, 1 м/с99%1015 гПаоблачно
02:00+12СВ, 1 м/с99%1015 гПаоблачно
03:00+12СВ, 1 м/с99%1015 гПас прояснениями
04:00+13СВ, 2 м/с99%1015 гПаоблачно
05:00+13СВ, 2 м/с99%1015 гПаоблачно
06:00+13СВ, 1 м/с98%1015 гПаоблачно
07:00+12СВ, 1 м/с99%1015 гПаоблачно
08:00+13СВ, 1 м/с96%1016 гПаоблачно
09:00+15С, 2 м/с89%1016 гПаоблачно